createdAt,value
2018-07-23T00:00:20.647Z,19.73
2018-07-23T00:02:54.984Z,17.20
2018-07-23T00:05:29.465Z,17.75
2018-07-23T00:08:03.983Z,17.05
2018-07-23T00:10:38.465Z,15.40
2018-07-23T00:13:12.801Z,17.10
2018-07-23T00:15:47.121Z,14.83
2018-07-23T00:18:21.528Z,16.45
2018-07-23T00:20:55.850Z,16.60
2018-07-23T00:23:30.269Z,21.55
2018-07-23T00:26:04.640Z,17.17
2018-07-23T00:28:39.068Z,15.70
2018-07-23T00:31:13.565Z,15.43
2018-07-23T00:33:47.991Z,18.07
2018-07-23T00:36:22.431Z,15.18
2018-07-23T00:38:56.745Z,17.17
2018-07-23T00:41:31.308Z,16.48
2018-07-23T00:44:05.774Z,16.55
2018-07-23T00:46:40.107Z,15.78
2018-07-23T00:49:14.398Z,17.42
2018-07-23T00:51:48.785Z,13.65
2018-07-23T00:54:23.200Z,11.10
2018-07-23T00:56:57.555Z,20.20
2018-07-23T00:59:32.102Z,13.55
2018-07-23T01:02:06.534Z,14.70
2018-07-23T01:04:40.961Z,13.78
2018-07-23T01:07:15.397Z,17.02
2018-07-23T01:09:50.131Z,14.30
2018-07-23T01:12:29.100Z,16.95
2018-07-23T01:15:03.542Z,15.88
2018-07-23T01:17:37.980Z,14.35
2018-07-23T01:20:12.231Z,13.95
2018-07-23T01:22:46.593Z,12.47
2018-07-23T01:25:20.906Z,12.90
2018-07-23T01:27:55.259Z,14.95
2018-07-23T01:30:29.538Z,10.82
2018-07-23T01:33:03.860Z,11.45
2018-07-23T01:35:38.201Z,12.35
2018-07-23T01:38:12.542Z,13.55
2018-07-23T01:40:46.945Z,10.63
2018-07-23T01:43:21.607Z,11.95
2018-07-23T01:45:55.948Z,11.60
2018-07-23T01:48:30.374Z,15.23
2018-07-23T01:51:04.930Z,10.20
2018-07-23T01:53:39.303Z,14.43
2018-07-23T01:56:13.831Z,12.05
2018-07-23T01:58:48.322Z,13.15
2018-07-23T02:01:22.650Z,11.60
2018-07-23T02:03:57.241Z,11.30
2018-07-23T02:06:31.576Z,18.00
2018-07-23T02:09:08.444Z,13.65
2018-07-23T02:11:42.822Z,15.80
2018-07-23T02:14:17.199Z,17.50
2018-07-23T02:16:51.622Z,11.97
2018-07-23T02:19:26.274Z,11.40
2018-07-23T02:22:00.758Z,12.58
2018-07-23T02:24:35.438Z,11.97
2018-07-23T02:27:10.209Z,12.15
2018-07-23T02:29:44.716Z,11.50
2018-07-23T02:32:19.535Z,13.65
2018-07-23T02:34:54.090Z,15.13
2018-07-23T02:37:28.953Z,12.07
2018-07-23T02:40:03.368Z,13.40
2018-07-23T02:42:37.724Z,15.98
2018-07-23T02:45:12.135Z,13.72
2018-07-23T02:47:46.944Z,15.43
2018-07-23T02:50:21.605Z,14.45
2018-07-23T02:52:55.994Z,15.65
2018-07-23T02:55:30.531Z,17.85
2018-07-23T02:58:04.779Z,15.30
2018-07-23T03:00:39.257Z,18.67
2018-07-23T03:03:13.585Z,15.23
2018-07-23T03:05:47.935Z,15.00
2018-07-23T03:08:22.556Z,15.85
2018-07-23T03:10:56.888Z,15.15
2018-07-23T03:13:31.230Z,13.53
2018-07-23T03:16:05.808Z,21.10
2018-07-23T03:18:40.331Z,12.33
2018-07-23T03:21:14.811Z,13.85
2018-07-23T03:23:49.270Z,17.50
2018-07-23T03:26:23.788Z,16.10
2018-07-23T03:28:58.274Z,14.53
2018-07-23T03:31:32.572Z,17.77
2018-07-23T03:34:07.106Z,14.73
2018-07-23T03:36:41.590Z,15.53
2018-07-23T03:39:16.011Z,16.50
2018-07-23T03:41:50.411Z,15.78
2018-07-23T03:44:26.353Z,22.60
2018-07-23T03:47:00.719Z,12.53
2018-07-23T03:49:35.135Z,12.93
2018-07-23T03:52:09.528Z,18.10
2018-07-23T03:54:44.017Z,16.62
2018-07-23T03:57:18.423Z,15.13
2018-07-23T03:59:52.871Z,16.75
2018-07-23T04:02:27.351Z,18.30
2018-07-23T04:05:01.685Z,15.23
2018-07-23T04:07:36.171Z,15.72
2018-07-23T04:10:10.667Z,17.50
2018-07-23T04:12:45.087Z,17.45
2018-07-23T04:15:19.355Z,17.07
2018-07-23T04:18:09.376Z,19.37
2018-07-23T04:20:43.809Z,20.02
2018-07-23T04:23:18.191Z,20.82
2018-07-23T04:25:52.530Z,13.25
2018-07-23T04:28:26.773Z,14.38
2018-07-23T04:31:01.160Z,15.30
2018-07-23T04:33:35.827Z,13.43
2018-07-23T04:36:10.144Z,14.05
2018-07-23T04:38:44.373Z,31.30
2018-07-23T04:41:18.756Z,14.33
2018-07-23T04:43:53.045Z,19.55
2018-07-23T04:46:27.425Z,17.42
2018-07-23T04:49:01.759Z,15.88
2018-07-23T04:51:36.136Z,15.03
2018-07-23T04:54:10.549Z,17.35
2018-07-23T04:56:45.036Z,13.72
2018-07-23T04:59:19.375Z,13.85
2018-07-23T05:01:53.797Z,14.65
2018-07-23T05:04:28.252Z,20.77
2018-07-23T05:07:02.798Z,14.98
2018-07-23T05:09:37.223Z,12.73
2018-07-23T05:12:11.530Z,15.90
2018-07-23T05:14:45.985Z,13.83
2018-07-23T05:17:23.851Z,11.97
2018-07-23T05:19:58.214Z,11.48
2018-07-23T05:22:32.494Z,14.83
2018-07-23T05:25:06.730Z,21.35
2018-07-23T05:27:41.181Z,16.00
2018-07-23T05:30:15.476Z,18.37
2018-07-23T05:32:49.800Z,18.35
2018-07-23T05:35:24.263Z,13.70
2018-07-23T05:37:58.234Z,16.42
2018-07-23T05:40:32.541Z,14.83
2018-07-23T05:43:06.994Z,13.40
2018-07-23T05:45:41.324Z,12.90
2018-07-23T05:48:15.757Z,13.80
2018-07-23T05:50:50.520Z,13.72
2018-07-23T05:53:24.761Z,14.68
2018-07-23T05:55:59.109Z,13.70
2018-07-23T05:58:33.505Z,14.10
2018-07-23T06:01:07.882Z,10.32
2018-07-23T06:03:42.211Z,11.50
2018-07-23T06:06:16.576Z,12.75
2018-07-23T06:08:50.878Z,13.53
2018-07-23T06:11:25.303Z,12.40
2018-07-23T06:13:59.618Z,17.30
2018-07-23T06:16:34.268Z,12.45
2018-07-23T06:19:08.534Z,19.55
2018-07-23T06:21:42.796Z,10.82
2018-07-23T06:24:17.123Z,11.10
2018-07-23T06:26:51.386Z,9.70
2018-07-23T06:29:25.610Z,8.43
2018-07-23T06:31:59.951Z,9.63
2018-07-23T06:34:34.313Z,10.60
2018-07-23T06:37:08.540Z,11.25
2018-07-23T06:39:43.154Z,8.78
2018-07-23T06:42:17.753Z,10.13
2018-07-23T06:44:52.093Z,17.23
2018-07-23T06:47:26.786Z,11.60
2018-07-23T06:50:01.213Z,12.53
2018-07-23T06:52:35.711Z,11.88
2018-07-23T06:55:10.090Z,11.57
2018-07-23T06:57:44.581Z,15.93
2018-07-23T07:00:18.814Z,12.43
2018-07-23T07:02:53.090Z,15.55
2018-07-23T07:05:27.384Z,14.60
2018-07-23T07:08:01.823Z,15.38
2018-07-23T07:10:36.242Z,14.43
2018-07-23T07:13:10.684Z,18.17
2018-07-23T07:15:45.105Z,25.10
2018-07-23T07:18:19.728Z,17.70
2018-07-23T07:20:54.077Z,20.97
2018-07-23T07:23:28.451Z,18.23
2018-07-23T07:26:02.796Z,22.95
2018-07-23T07:28:37.242Z,19.50
2018-07-23T07:31:11.678Z,21.57
2018-07-23T07:33:45.998Z,22.60
2018-07-23T07:36:20.430Z,23.40
2018-07-23T07:38:54.905Z,27.70
2018-07-23T07:41:29.387Z,25.12
2018-07-23T07:44:03.835Z,24.45
2018-07-23T07:46:39.252Z,22.02
2018-07-23T07:49:13.691Z,19.07
2018-07-23T07:51:48.036Z,22.25
2018-07-23T07:54:22.485Z,22.50
2018-07-23T07:56:56.831Z,21.50
2018-07-23T07:59:31.233Z,21.52
2018-07-23T08:02:05.614Z,22.17
2018-07-23T08:04:40.134Z,21.85
2018-07-23T08:07:14.512Z,17.62
2018-07-23T08:09:48.941Z,23.50
2018-07-23T08:12:23.415Z,20.37
2018-07-23T08:14:57.760Z,17.87
2018-07-23T08:17:31.873Z,20.97
2018-07-23T08:20:06.482Z,19.40
2018-07-23T08:22:40.823Z,17.42
2018-07-23T08:25:15.242Z,19.00
2018-07-23T08:27:49.701Z,19.27
2018-07-23T08:30:24.086Z,19.62
2018-07-23T08:32:58.412Z,19.12
2018-07-23T08:35:32.839Z,19.82
2018-07-23T08:38:07.197Z,18.20
2018-07-23T08:40:41.729Z,23.45
2018-07-23T08:43:16.337Z,21.07
2018-07-23T08:45:50.667Z,21.80
2018-07-23T08:48:24.962Z,23.47
2018-07-23T08:50:59.422Z,20.25
2018-07-23T08:53:33.736Z,19.92
2018-07-23T08:56:08.219Z,24.60
2018-07-23T08:58:42.721Z,21.02
2018-07-23T09:01:17.264Z,23.55
2018-07-23T09:03:51.684Z,28.90
2018-07-23T09:06:26.378Z,22.75
2018-07-23T09:09:00.796Z,20.65
2018-07-23T09:11:35.072Z,23.22
2018-07-23T09:14:09.650Z,19.23
2018-07-23T09:16:44.131Z,24.95
2018-07-23T09:19:18.566Z,18.02
2018-07-23T09:21:52.969Z,17.85
2018-07-23T09:24:27.307Z,20.45
2018-07-23T09:27:01.662Z,24.70
2018-07-23T09:29:36.033Z,18.12
2018-07-23T09:32:10.447Z,20.12
2018-07-23T09:34:44.863Z,19.12
2018-07-23T09:37:19.279Z,18.27
2018-07-23T09:39:54.309Z,18.65
2018-07-23T09:42:28.650Z,16.73
2018-07-23T09:45:03.535Z,21.52
2018-07-23T09:47:37.891Z,14.80
2018-07-23T09:50:12.330Z,12.43
2018-07-23T09:52:46.753Z,14.25
2018-07-23T09:55:21.217Z,17.00
2018-07-23T09:57:55.566Z,18.40
2018-07-23T10:00:35.554Z,16.15
2018-07-23T10:03:09.891Z,13.60
2018-07-23T10:05:44.261Z,14.73
2018-07-23T10:08:18.719Z,14.55
2018-07-23T10:10:53.174Z,12.55
2018-07-23T10:13:27.429Z,12.45
2018-07-23T10:16:01.820Z,11.63
2018-07-23T10:18:36.214Z,12.95
2018-07-23T10:21:10.468Z,12.85
2018-07-23T10:23:44.931Z,13.48
2018-07-23T10:26:19.143Z,10.65
2018-07-23T10:28:53.571Z,13.32
2018-07-23T10:31:27.943Z,15.32
2018-07-23T10:34:02.219Z,12.43
2018-07-23T10:36:36.597Z,13.22
2018-07-23T10:39:11.222Z,14.03
2018-07-23T10:41:45.498Z,10.23
2018-07-23T10:44:19.698Z,13.88
2018-07-23T10:46:54.174Z,14.95
2018-07-23T10:49:28.499Z,12.73
2018-07-23T10:52:02.831Z,12.47
2018-07-23T10:54:37.174Z,14.70
2018-07-23T10:57:11.634Z,11.95
2018-07-23T10:59:46.059Z,14.18
2018-07-23T11:02:21.193Z,15.75
2018-07-23T11:04:55.633Z,31.23
2018-07-23T11:07:29.981Z,13.78
2018-07-23T11:10:04.732Z,14.70
2018-07-23T11:12:39.069Z,17.02
2018-07-23T11:15:13.378Z,13.20
2018-07-23T11:17:47.497Z,13.20
2018-07-23T11:20:21.783Z,18.77
2018-07-23T11:22:56.135Z,14.73
2018-07-23T11:25:39.179Z,13.85
2018-07-23T11:28:04.470Z,15.35
2018-07-23T11:30:38.894Z,12.37
2018-07-23T11:33:13.387Z,12.37
2018-07-23T11:35:47.696Z,11.90
2018-07-23T11:38:21.941Z,17.98
2018-07-23T11:40:56.328Z,14.40
2018-07-23T11:43:30.589Z,17.17
2018-07-23T11:46:05.075Z,14.25
2018-07-23T11:48:39.312Z,12.45
2018-07-23T11:51:13.732Z,15.00
2018-07-23T11:53:47.941Z,16.55
2018-07-23T11:56:22.419Z,15.63
2018-07-23T11:58:56.807Z,16.82
2018-07-23T12:01:31.201Z,14.30
2018-07-23T12:04:10.405Z,15.65
2018-07-23T12:06:39.990Z,13.95
2018-07-23T12:09:14.293Z,16.23
2018-07-23T12:11:48.656Z,14.03
2018-07-23T12:14:23.095Z,15.05
2018-07-23T12:16:57.482Z,15.05
2018-07-23T12:19:31.807Z,13.78
2018-07-23T12:22:06.229Z,17.60
2018-07-23T12:24:40.694Z,15.98
2018-07-23T12:27:15.053Z,18.12
2018-07-23T12:29:49.387Z,17.25
2018-07-23T12:32:23.700Z,15.05
2018-07-23T12:34:58.165Z,19.80
2018-07-23T12:37:32.785Z,15.85
2018-07-23T12:40:07.223Z,18.85
2018-07-23T12:42:41.610Z,17.82
2018-07-23T12:45:16.038Z,16.60
2018-07-23T12:47:50.805Z,18.50
2018-07-23T12:50:25.272Z,21.45
2018-07-23T12:52:59.676Z,17.52
2018-07-23T12:55:34.122Z,23.10
2018-07-23T12:58:08.623Z,18.65
2018-07-23T13:00:42.972Z,21.65
2018-07-23T13:03:17.402Z,19.20
2018-07-23T13:05:51.756Z,17.98
2018-07-23T13:08:26.083Z,17.70
2018-07-23T13:11:00.438Z,16.02
2018-07-23T13:13:34.750Z,17.92
2018-07-23T13:16:09.267Z,17.87
2018-07-23T13:18:43.675Z,17.20
2018-07-23T13:21:18.145Z,21.80
2018-07-23T13:23:52.501Z,17.27
2018-07-23T13:26:26.851Z,18.65
2018-07-23T13:29:02.114Z,19.90
2018-07-23T13:31:36.493Z,20.68
2018-07-23T13:34:10.962Z,15.95
2018-07-23T13:36:45.459Z,17.87
2018-07-23T13:39:19.929Z,15.63
2018-07-23T13:41:54.365Z,19.25
2018-07-23T13:44:28.697Z,18.82
2018-07-23T13:47:03.105Z,16.73
2018-07-23T13:49:37.377Z,14.70
2018-07-23T13:52:11.943Z,15.85
2018-07-23T13:54:46.522Z,18.60
2018-07-23T13:57:20.930Z,16.20
2018-07-23T13:59:55.346Z,17.17
2018-07-23T14:02:29.778Z,16.25
2018-07-23T14:05:04.282Z,16.30
2018-07-23T14:07:38.818Z,15.80
2018-07-23T14:10:13.322Z,18.20
2018-07-23T14:12:47.735Z,20.80
2018-07-23T14:15:22.038Z,19.00
2018-07-23T14:17:56.449Z,16.87
2018-07-23T14:20:30.739Z,17.45
2018-07-23T14:23:05.202Z,17.32
2018-07-23T14:25:39.667Z,18.95
2018-07-23T14:28:14.102Z,22.70
2018-07-23T14:30:48.588Z,19.75
2018-07-23T14:33:22.951Z,17.73
2018-07-23T14:35:57.517Z,18.90
2018-07-23T14:38:31.867Z,22.30
2018-07-23T14:41:06.138Z,20.77
2018-07-23T14:43:40.490Z,19.10
2018-07-23T14:46:14.841Z,18.15
2018-07-23T14:48:49.322Z,19.05
2018-07-23T14:51:23.707Z,15.65
2018-07-23T14:53:58.031Z,25.88
2018-07-23T14:56:32.351Z,15.80
2018-07-23T14:59:06.801Z,14.40
2018-07-23T15:01:41.278Z,18.32
2018-07-23T15:04:15.597Z,15.55
2018-07-23T15:06:49.905Z,14.95
2018-07-23T15:09:24.355Z,15.25
2018-07-23T15:11:58.746Z,19.15
2018-07-23T15:14:33.209Z,16.42
2018-07-23T15:17:07.602Z,16.97
2018-07-23T15:19:41.929Z,18.10
2018-07-23T15:22:16.423Z,14.23
2018-07-23T15:24:50.746Z,19.45
2018-07-23T15:27:25.166Z,16.20
2018-07-23T15:29:59.749Z,17.87
2018-07-23T15:32:34.215Z,18.00
2018-07-23T15:35:08.577Z,13.98
2018-07-23T15:37:43.040Z,18.82
2018-07-23T15:40:17.522Z,15.85
2018-07-23T15:42:51.956Z,17.80
2018-07-23T15:45:26.390Z,13.68
2018-07-23T15:48:00.869Z,16.32
2018-07-23T15:50:35.263Z,12.80
2018-07-23T15:53:09.736Z,16.87
2018-07-23T15:55:44.210Z,12.93
2018-07-23T15:58:18.554Z,14.85
2018-07-23T16:00:53.026Z,15.48
2018-07-23T16:03:27.459Z,20.35
2018-07-23T16:06:01.882Z,17.70
2018-07-23T16:08:36.302Z,16.48
2018-07-23T16:11:10.801Z,17.52
2018-07-23T16:13:45.297Z,18.10
2018-07-23T16:16:19.773Z,15.28
2018-07-23T16:18:54.369Z,16.25
2018-07-23T16:21:28.977Z,22.10
2018-07-23T16:24:03.377Z,16.32
2018-07-23T16:26:37.756Z,19.87
2018-07-23T16:29:12.186Z,18.23
2018-07-23T16:31:46.645Z,14.03
2018-07-23T16:34:20.977Z,16.42
2018-07-23T16:36:55.472Z,13.10
2018-07-23T16:39:29.935Z,13.83
2018-07-23T16:42:04.310Z,16.20
2018-07-23T16:44:38.771Z,18.82
2018-07-23T16:47:13.126Z,18.27
2018-07-23T16:49:47.531Z,14.55
2018-07-23T16:52:21.992Z,16.65
2018-07-23T16:54:56.532Z,20.08
2018-07-23T16:57:30.917Z,14.87
2018-07-23T17:00:05.854Z,15.93
2018-07-23T17:02:40.209Z,15.43
2018-07-23T17:05:14.563Z,17.37
2018-07-23T17:07:49.104Z,18.30
2018-07-23T17:10:23.524Z,16.62
2018-07-23T17:12:57.899Z,16.75
2018-07-23T17:15:32.341Z,16.40
2018-07-23T17:18:06.871Z,16.15
2018-07-23T17:20:41.333Z,19.82
2018-07-23T17:23:15.889Z,20.15
2018-07-23T17:25:50.329Z,17.50
2018-07-23T17:28:24.826Z,22.10
2018-07-23T17:30:59.163Z,23.60
2018-07-23T17:33:33.634Z,17.60
2018-07-23T17:36:08.111Z,15.70
2018-07-23T17:38:42.489Z,16.60
2018-07-23T17:41:16.826Z,17.87
2018-07-23T17:43:51.100Z,18.25
2018-07-23T17:46:25.644Z,17.50
2018-07-23T17:48:59.968Z,23.87
2018-07-23T17:51:34.359Z,23.62
2018-07-23T17:54:08.754Z,17.70
2018-07-23T17:56:43.129Z,18.10
2018-07-23T17:59:17.476Z,18.00
2018-07-23T18:01:51.816Z,31.90
2018-07-23T18:04:26.193Z,21.52
2018-07-23T18:07:00.508Z,17.48
2018-07-23T18:09:34.802Z,24.87
2018-07-23T18:12:09.596Z,18.10
2018-07-23T18:14:44.036Z,18.07
2018-07-23T18:17:18.377Z,20.20
2018-07-23T18:19:52.853Z,24.85
2018-07-23T18:22:27.198Z,30.72
2018-07-23T18:25:01.780Z,16.05
2018-07-23T18:27:36.125Z,22.22
2018-07-23T18:30:10.524Z,17.75
2018-07-23T18:32:44.912Z,19.05
2018-07-23T18:35:19.222Z,19.65
2018-07-23T18:37:53.585Z,23.60
2018-07-23T18:40:27.833Z,18.42
2018-07-23T18:43:02.215Z,19.73
2018-07-23T18:45:36.473Z,26.05
2018-07-23T18:49:24.460Z,20.65
2018-07-23T18:51:58.943Z,26.10
2018-07-23T18:54:33.983Z,24.00
2018-07-23T18:57:08.940Z,22.58
2018-07-23T18:59:43.344Z,23.57
2018-07-23T19:02:19.173Z,21.37
2018-07-23T19:04:53.573Z,21.52
2018-07-23T19:07:28.180Z,25.08
2018-07-23T19:10:02.775Z,24.23
2018-07-23T19:12:37.593Z,22.37
2018-07-23T19:15:12.207Z,22.32
2018-07-23T19:17:46.874Z,22.13
2018-07-23T19:20:21.427Z,22.95
2018-07-23T19:22:55.990Z,24.10
2018-07-23T19:25:30.517Z,22.77
2018-07-23T19:28:05.457Z,21.40
2018-07-23T19:30:40.185Z,22.82
2018-07-23T19:33:14.915Z,29.85
2018-07-23T19:35:49.491Z,24.05
2018-07-23T19:38:24.084Z,31.60
2018-07-23T19:40:58.738Z,27.30
2018-07-23T19:43:33.233Z,22.80
2018-07-23T19:46:07.805Z,23.65
2018-07-23T19:48:42.138Z,24.10
2018-07-23T19:51:16.461Z,22.85
2018-07-23T19:53:50.904Z,25.30
2018-07-23T19:56:25.295Z,22.58
2018-07-23T19:58:59.748Z,22.20
2018-07-23T20:01:34.385Z,34.10
2018-07-23T20:04:08.779Z,26.52
2018-07-23T20:06:43.147Z,23.98
2018-07-23T20:09:17.670Z,21.37
2018-07-23T20:11:52.110Z,23.70
2018-07-23T20:14:26.622Z,23.22
2018-07-23T20:17:01.074Z,36.03
2018-07-23T20:19:35.388Z,29.80
2018-07-23T20:22:09.763Z,20.70
2018-07-23T20:24:44.458Z,21.68
2018-07-23T20:27:19.056Z,20.50
2018-07-23T20:29:53.348Z,20.72
2018-07-23T20:32:27.691Z,20.52
2018-07-23T20:35:01.990Z,20.97
2018-07-23T20:37:36.266Z,23.45
